sensor_id;sensor_type;location;lat;lon;timestamp;temperature;humidity
71039;SHT30;58692;43.212;27.908;2023-03-29T00:00:33;5.58;77.72
71039;SHT30;58692;43.212;27.908;2023-03-29T00:03:00;5.44;78.76
71039;SHT30;58692;43.212;27.908;2023-03-29T00:05:28;5.37;79.06
71039;SHT30;58692;43.212;27.908;2023-03-29T00:07:58;5.26;78.60
71039;SHT30;58692;43.212;27.908;2023-03-29T00:10:26;5.30;78.36
71039;SHT30;58692;43.212;27.908;2023-03-29T00:12:52;5.26;77.99
71039;SHT30;58692;43.212;27.908;2023-03-29T00:15:18;5.37;78.03
71039;SHT30;58692;43.212;27.908;2023-03-29T00:17:44;5.32;77.79
71039;SHT30;58692;43.212;27.908;2023-03-29T00:20:12;5.35;77.16
71039;SHT30;58692;43.212;27.908;2023-03-29T00:22:39;5.34;76.81
71039;SHT30;58692;43.212;27.908;2023-03-29T00:25:07;5.31;77.51
71039;SHT30;58692;43.212;27.908;2023-03-29T00:27:33;5.34;77.30
71039;SHT30;58692;43.212;27.908;2023-03-29T00:29:58;5.23;77.54
71039;SHT30;58692;43.212;27.908;2023-03-29T00:32:24;5.28;78.77
71039;SHT30;58692;43.212;27.908;2023-03-29T00:34:50;5.19;78.29
71039;SHT30;58692;43.212;27.908;2023-03-29T00:37:17;5.14;78.12
71039;SHT30;58692;43.212;27.908;2023-03-29T00:39:44;5.09;78.38
71039;SHT30;58692;43.212;27.908;2023-03-29T00:42:12;4.96;78.90
71039;SHT30;58692;43.212;27.908;2023-03-29T00:47:24;5.04;78.65
71039;SHT30;58692;43.212;27.908;2023-03-29T00:49:51;5.06;79.66
71039;SHT30;58692;43.212;27.908;2023-03-29T00:52:18;4.99;79.34
71039;SHT30;58692;43.212;27.908;2023-03-29T00:54:47;5.01;79.38
71039;SHT30;58692;43.212;27.908;2023-03-29T00:57:14;5.06;79.72
71039;SHT30;58692;43.212;27.908;2023-03-29T00:59:43;5.04;79.58
71039;SHT30;58692;43.212;27.908;2023-03-29T01:02:10;5.03;79.77
71039;SHT30;58692;43.212;27.908;2023-03-29T01:04:46;5.04;79.48
71039;SHT30;58692;43.212;27.908;2023-03-29T01:07:19;5.04;79.67
71039;SHT30;58692;43.212;27.908;2023-03-29T01:09:51;4.97;79.75
71039;SHT30;58692;43.212;27.908;2023-03-29T01:12:22;4.93;79.69
71039;SHT30;58692;43.212;27.908;2023-03-29T01:14:53;4.84;79.80
71039;SHT30;58692;43.212;27.908;2023-03-29T01:17:21;4.87;80.37
71039;SHT30;58692;43.212;27.908;2023-03-29T01:19:55;4.80;80.47
71039;SHT30;58692;43.212;27.908;2023-03-29T01:27:53;4.97;80.31
71039;SHT30;58692;43.212;27.908;2023-03-29T01:30:27;4.86;79.94
71039;SHT30;58692;43.212;27.908;2023-03-29T01:33:00;4.81;80.65
71039;SHT30;58692;43.212;27.908;2023-03-29T01:35:41;4.81;80.03
71039;SHT30;58692;43.212;27.908;2023-03-29T01:38:14;4.76;80.09
71039;SHT30;58692;43.212;27.908;2023-03-29T01:40:42;4.76;79.75
71039;SHT30;58692;43.212;27.908;2023-03-29T01:45:40;4.75;80.03
71039;SHT30;58692;43.212;27.908;2023-03-29T01:48:12;4.62;79.46
71039;SHT30;58692;43.212;27.908;2023-03-29T01:50:45;4.63;79.78
71039;SHT30;58692;43.212;27.908;2023-03-29T01:55:50;4.56;79.93
71039;SHT30;58692;43.212;27.908;2023-03-29T01:58:17;4.63;79.92
71039;SHT30;58692;43.212;27.908;2023-03-29T02:00:50;4.63;79.61
71039;SHT30;58692;43.212;27.908;2023-03-29T02:03:19;4.60;79.10
71039;SHT30;58692;43.212;27.908;2023-03-29T02:05:47;4.66;78.89
71039;SHT30;58692;43.212;27.908;2023-03-29T02:08:15;4.70;79.07
71039;SHT30;58692;43.212;27.908;2023-03-29T02:10:42;4.77;79.04
71039;SHT30;58692;43.212;27.908;2023-03-29T02:13:08;4.67;78.24
71039;SHT30;58692;43.212;27.908;2023-03-29T02:15:34;4.62;77.09
71039;SHT30;58692;43.212;27.908;2023-03-29T02:17:59;4.65;77.27
71039;SHT30;58692;43.212;27.908;2023-03-29T02:20:30;4.59;76.37
71039;SHT30;58692;43.212;27.908;2023-03-29T02:25:22;4.53;76.67
71039;SHT30;58692;43.212;27.908;2023-03-29T02:27:49;4.42;75.84
71039;SHT30;58692;43.212;27.908;2023-03-29T02:30:16;4.41;76.10
71039;SHT30;58692;43.212;27.908;2023-03-29T02:32:52;4.49;75.80
71039;SHT30;58692;43.212;27.908;2023-03-29T02:35:26;4.44;74.69
71039;SHT30;58692;43.212;27.908;2023-03-29T02:38:00;4.38;75.48
71039;SHT30;58692;43.212;27.908;2023-03-29T02:40:26;4.31;77.24
71039;SHT30;58692;43.212;27.908;2023-03-29T02:42:53;4.26;77.85
71039;SHT30;58692;43.212;27.908;2023-03-29T02:45:21;4.28;78.41
71039;SHT30;58692;43.212;27.908;2023-03-29T02:47:51;4.42;78.53
71039;SHT30;58692;43.212;27.908;2023-03-29T02:50:19;4.26;78.46
71039;SHT30;58692;43.212;27.908;2023-03-29T02:52:52;4.28;78.34
71039;SHT30;58692;43.212;27.908;2023-03-29T02:55:21;4.28;78.20
71039;SHT30;58692;43.212;27.908;2023-03-29T02:57:47;4.12;78.28
71039;SHT30;58692;43.212;27.908;2023-03-29T03:00:13;4.11;78.66
71039;SHT30;58692;43.212;27.908;2023-03-29T03:02:39;4.08;78.84
71039;SHT30;58692;43.212;27.908;2023-03-29T03:05:05;4.02;78.96
71039;SHT30;58692;43.212;27.908;2023-03-29T03:07:30;3.98;78.50
71039;SHT30;58692;43.212;27.908;2023-03-29T03:09:57;3.88;78.53
71039;SHT30;58692;43.212;27.908;2023-03-29T03:12:23;3.88;78.93
71039;SHT30;58692;43.212;27.908;2023-03-29T03:14:48;3.90;78.69
71039;SHT30;58692;43.212;27.908;2023-03-29T03:17:14;3.85;78.85
71039;SHT30;58692;43.212;27.908;2023-03-29T03:19:40;3.69;78.95
71039;SHT30;58692;43.212;27.908;2023-03-29T03:22:06;3.74;78.93
71039;SHT30;58692;43.212;27.908;2023-03-29T03:24:32;3.66;78.41
71039;SHT30;58692;43.212;27.908;2023-03-29T03:26:57;3.66;78.57
71039;SHT30;58692;43.212;27.908;2023-03-29T03:29:24;3.70;78.79
71039;SHT30;58692;43.212;27.908;2023-03-29T03:31:49;3.67;78.80
71039;SHT30;58692;43.212;27.908;2023-03-29T03:34:17;3.70;78.73
71039;SHT30;58692;43.212;27.908;2023-03-29T03:36:44;3.64;78.32
71039;SHT30;58692;43.212;27.908;2023-03-29T03:39:11;3.63;78.40
71039;SHT30;58692;43.212;27.908;2023-03-29T03:41:37;3.67;78.72
71039;SHT30;58692;43.212;27.908;2023-03-29T03:44:03;3.67;79.04
71039;SHT30;58692;43.212;27.908;2023-03-29T03:46:29;3.73;79.07
71039;SHT30;58692;43.212;27.908;2023-03-29T03:48:54;3.57;79.83
71039;SHT30;58692;43.212;27.908;2023-03-29T03:51:20;3.43;79.92
71039;SHT30;58692;43.212;27.908;2023-03-29T03:53:45;3.46;79.66
71039;SHT30;58692;43.212;27.908;2023-03-29T03:56:11;3.50;79.57
71039;SHT30;58692;43.212;27.908;2023-03-29T03:58:37;3.53;79.37
71039;SHT30;58692;43.212;27.908;2023-03-29T04:01:04;3.54;79.31
71039;SHT30;58692;43.212;27.908;2023-03-29T04:03:30;3.54;79.47
71039;SHT30;58692;43.212;27.908;2023-03-29T04:05:59;3.53;79.53
71039;SHT30;58692;43.212;27.908;2023-03-29T04:08:24;3.59;79.31
71039;SHT30;58692;43.212;27.908;2023-03-29T04:10:53;3.54;79.29
71039;SHT30;58692;43.212;27.908;2023-03-29T04:13:20;3.52;79.50
71039;SHT30;58692;43.212;27.908;2023-03-29T04:15:47;3.42;79.75
71039;SHT30;58692;43.212;27.908;2023-03-29T04:18:14;3.54;79.92
71039;SHT30;58692;43.212;27.908;2023-03-29T04:20:45;3.49;79.52
71039;SHT30;58692;43.212;27.908;2023-03-29T04:23:13;3.49;79.05
71039;SHT30;58692;43.212;27.908;2023-03-29T04:25:39;3.57;79.06
71039;SHT30;58692;43.212;27.908;2023-03-29T04:28:06;3.64;78.78
71039;SHT30;58692;43.212;27.908;2023-03-29T04:30:37;3.63;78.62
71039;SHT30;58692;43.212;27.908;2023-03-29T04:33:07;3.66;78.19
71039;SHT30;58692;43.212;27.908;2023-03-29T04:35:33;3.73;78.25
71039;SHT30;58692;43.212;27.908;2023-03-29T04:37:59;3.75;77.70
71039;SHT30;58692;43.212;27.908;2023-03-29T04:40:24;3.80;77.48
71039;SHT30;58692;43.212;27.908;2023-03-29T04:42:50;3.77;77.31
71039;SHT30;58692;43.212;27.908;2023-03-29T04:45:16;3.77;77.50
71039;SHT30;58692;43.212;27.908;2023-03-29T04:47:42;4.01;76.71
71039;SHT30;58692;43.212;27.908;2023-03-29T04:50:10;4.42;75.73
71039;SHT30;58692;43.212;27.908;2023-03-29T04:52:36;4.45;75.09
71039;SHT30;58692;43.212;27.908;2023-03-29T04:55:03;4.57;74.86
71039;SHT30;58692;43.212;27.908;2023-03-29T04:57:29;4.76;74.00
71039;SHT30;58692;43.212;27.908;2023-03-29T04:59:55;4.59;73.80
71039;SHT30;58692;43.212;27.908;2023-03-29T05:02:23;4.86;73.27
71039;SHT30;58692;43.212;27.908;2023-03-29T05:04:49;4.69;73.33
71039;SHT30;58692;43.212;27.908;2023-03-29T05:07:14;4.80;73.75
71039;SHT30;58692;43.212;27.908;2023-03-29T05:09:48;4.66;73.19
71039;SHT30;58692;43.212;27.908;2023-03-29T05:12:15;4.76;73.10
71039;SHT30;58692;43.212;27.908;2023-03-29T05:14:41;5.19;72.46
71039;SHT30;58692;43.212;27.908;2023-03-29T05:17:07;5.45;71.45
71039;SHT30;58692;43.212;27.908;2023-03-29T05:19:35;6.10;69.95
71039;SHT30;58692;43.212;27.908;2023-03-29T05:22:02;6.50;68.40
71039;SHT30;58692;43.212;27.908;2023-03-29T05:24:28;6.80;67.64
71039;SHT30;58692;43.212;27.908;2023-03-29T05:26:54;7.02;66.42
71039;SHT30;58692;43.212;27.908;2023-03-29T05:29:20;7.01;66.40
71039;SHT30;58692;43.212;27.908;2023-03-29T05:31:48;6.81;66.40
71039;SHT30;58692;43.212;27.908;2023-03-29T05:34:13;7.07;66.97
71039;SHT30;58692;43.212;27.908;2023-03-29T05:36:39;6.97;66.33
71039;SHT30;58692;43.212;27.908;2023-03-29T05:39:04;6.99;65.62
71039;SHT30;58692;43.212;27.908;2023-03-29T05:41:34;6.85;66.45
71039;SHT30;58692;43.212;27.908;2023-03-29T05:44:05;7.11;64.99
71039;SHT30;58692;43.212;27.908;2023-03-29T05:46:34;7.63;63.94
71039;SHT30;58692;43.212;27.908;2023-03-29T05:49:00;7.97;62.68
71039;SHT30;58692;43.212;27.908;2023-03-29T05:51:26;8.10;61.41
71039;SHT30;58692;43.212;27.908;2023-03-29T05:53:52;7.94;62.39
71039;SHT30;58692;43.212;27.908;2023-03-29T05:56:23;7.15;64.06
71039;SHT30;58692;43.212;27.908;2023-03-29T05:58:52;6.46;65.63
71039;SHT30;58692;43.212;27.908;2023-03-29T06:01:18;6.38;65.52
71039;SHT30;58692;43.212;27.908;2023-03-29T06:03:44;6.16;66.49
71039;SHT30;58692;43.212;27.908;2023-03-29T06:06:11;6.38;66.05
71039;SHT30;58692;43.212;27.908;2023-03-29T06:08:39;7.07;64.36
71039;SHT30;58692;43.212;27.908;2023-03-29T06:11:06;7.28;62.96
71039;SHT30;58692;43.212;27.908;2023-03-29T06:13:35;7.79;61.24
71039;SHT30;58692;43.212;27.908;2023-03-29T06:16:04;8.14;60.77
71039;SHT30;58692;43.212;27.908;2023-03-29T06:18:32;8.35;60.01
71039;SHT30;58692;43.212;27.908;2023-03-29T06:20:57;8.15;59.90
71039;SHT30;58692;43.212;27.908;2023-03-29T06:23:27;8.46;59.18
71039;SHT30;58692;43.212;27.908;2023-03-29T06:25:53;8.42;58.84
71039;SHT30;58692;43.212;27.908;2023-03-29T06:28:20;9.23;57.13
71039;SHT30;58692;43.212;27.908;2023-03-29T06:30:47;9.39;56.34
71039;SHT30;58692;43.212;27.908;2023-03-29T06:33:13;9.52;55.13
71039;SHT30;58692;43.212;27.908;2023-03-29T06:35:41;9.67;55.35
71039;SHT30;58692;43.212;27.908;2023-03-29T06:38:09;9.88;54.69
71039;SHT30;58692;43.212;27.908;2023-03-29T06:40:35;10.09;53.65
71039;SHT30;58692;43.212;27.908;2023-03-29T06:43:05;10.43;53.63
71039;SHT30;58692;43.212;27.908;2023-03-29T06:45:33;10.25;53.55
71039;SHT30;58692;43.212;27.908;2023-03-29T06:48:04;9.70;54.15
71039;SHT30;58692;43.212;27.908;2023-03-29T06:50:30;9.95;54.76
71039;SHT30;58692;43.212;27.908;2023-03-29T06:52:56;10.80;52.17
71039;SHT30;58692;43.212;27.908;2023-03-29T06:55:23;11.13;51.26
71039;SHT30;58692;43.212;27.908;2023-03-29T06:57:50;10.28;52.63
71039;SHT30;58692;43.212;27.908;2023-03-29T07:00:17;10.63;52.45
71039;SHT30;58692;43.212;27.908;2023-03-29T07:02:53;11.08;51.09
71039;SHT30;58692;43.212;27.908;2023-03-29T07:05:19;10.42;52.26
71039;SHT30;58692;43.212;27.908;2023-03-29T07:07:46;11.16;50.72
71039;SHT30;58692;43.212;27.908;2023-03-29T07:10:30;11.57;49.51
71039;SHT30;58692;43.212;27.908;2023-03-29T07:13:00;11.11;50.67
71039;SHT30;58692;43.212;27.908;2023-03-29T07:15:27;10.89;50.48
71039;SHT30;58692;43.212;27.908;2023-03-29T07:17:53;10.56;50.53
71039;SHT30;58692;43.212;27.908;2023-03-29T07:20:19;11.39;48.17
71039;SHT30;58692;43.212;27.908;2023-03-29T07:22:49;11.99;46.74
71039;SHT30;58692;43.212;27.908;2023-03-29T07:25:16;12.60;46.08
71039;SHT30;58692;43.212;27.908;2023-03-29T07:27:43;13.01;44.71
71039;SHT30;58692;43.212;27.908;2023-03-29T07:30:12;12.26;45.24
71039;SHT30;58692;43.212;27.908;2023-03-29T07:32:39;10.92;47.88
71039;SHT30;58692;43.212;27.908;2023-03-29T07:35:07;10.56;50.69
71039;SHT30;58692;43.212;27.908;2023-03-29T07:37:35;11.57;49.92
71039;SHT30;58692;43.212;27.908;2023-03-29T07:40:03;11.78;49.15
71039;SHT30;58692;43.212;27.908;2023-03-29T07:42:34;12.20;47.53
71039;SHT30;58692;43.212;27.908;2023-03-29T07:45:03;13.11;45.63
71039;SHT30;58692;43.212;27.908;2023-03-29T07:47:29;12.65;45.62
71039;SHT30;58692;43.212;27.908;2023-03-29T07:49:55;13.29;45.11
71039;SHT30;58692;43.212;27.908;2023-03-29T07:52:20;14.10;42.82
71039;SHT30;58692;43.212;27.908;2023-03-29T07:54:46;13.24;43.48
71039;SHT30;58692;43.212;27.908;2023-03-29T07:57:12;13.00;43.65
71039;SHT30;58692;43.212;27.908;2023-03-29T07:59:38;13.19;43.58
71039;SHT30;58692;43.212;27.908;2023-03-29T08:02:09;13.59;43.34
71039;SHT30;58692;43.212;27.908;2023-03-29T08:04:35;14.28;41.54
71039;SHT30;58692;43.212;27.908;2023-03-29T08:07:01;14.13;41.62
71039;SHT30;58692;43.212;27.908;2023-03-29T08:09:27;14.12;42.03
71039;SHT30;58692;43.212;27.908;2023-03-29T08:11:52;13.58;41.71
71039;SHT30;58692;43.212;27.908;2023-03-29T08:14:18;13.72;41.81
71039;SHT30;58692;43.212;27.908;2023-03-29T08:16:46;14.10;40.84
71039;SHT30;58692;43.212;27.908;2023-03-29T08:19:12;13.42;42.24
71039;SHT30;58692;43.212;27.908;2023-03-29T08:21:39;14.42;40.06
71039;SHT30;58692;43.212;27.908;2023-03-29T08:24:05;13.65;40.75
71039;SHT30;58692;43.212;27.908;2023-03-29T08:26:31;13.24;41.19
71039;SHT30;58692;43.212;27.908;2023-03-29T08:28:57;13.39;40.99
71039;SHT30;58692;43.212;27.908;2023-03-29T08:31:23;13.95;40.20
71039;SHT30;58692;43.212;27.908;2023-03-29T08:33:48;13.49;40.54
71039;SHT30;58692;43.212;27.908;2023-03-29T08:36:15;14.07;39.66
71039;SHT30;58692;43.212;27.908;2023-03-29T08:38:41;12.33;41.23
71039;SHT30;58692;43.212;27.908;2023-03-29T08:44:10;12.77;40.78
71039;SHT30;58692;43.212;27.908;2023-03-29T08:49:26;11.50;44.04
71039;SHT30;58692;43.212;27.908;2023-03-29T08:52:00;10.11;45.67
71039;SHT30;58692;43.212;27.908;2023-03-29T08:54:40;10.21;46.41
71039;SHT30;58692;43.212;27.908;2023-03-29T08:59:54;10.74;45.88
71039;SHT30;58692;43.212;27.908;2023-03-29T09:02:23;10.97;45.59
71039;SHT30;58692;43.212;27.908;2023-03-29T09:04:52;12.91;42.65
71039;SHT30;58692;43.212;27.908;2023-03-29T09:07:21;13.24;40.32
71039;SHT30;58692;43.212;27.908;2023-03-29T09:09:47;14.67;38.52
71039;SHT30;58692;43.212;27.908;2023-03-29T09:23:27;13.22;40.90
71039;SHT30;58692;43.212;27.908;2023-03-29T09:29:24;13.49;41.56
71039;SHT30;58692;43.212;27.908;2023-03-29T09:31:55;13.58;41.66
71039;SHT30;58692;43.212;27.908;2023-03-29T09:34:32;14.18;39.93
71039;SHT30;58692;43.212;27.908;2023-03-29T09:37:07;15.54;37.46
71039;SHT30;58692;43.212;27.908;2023-03-29T09:39:39;15.02;39.12
71039;SHT30;58692;43.212;27.908;2023-03-29T09:42:08;13.82;41.59
71039;SHT30;58692;43.212;27.908;2023-03-29T09:44:39;14.79;41.03
71039;SHT30;58692;43.212;27.908;2023-03-29T09:47:30;14.65;39.33
71039;SHT30;58692;43.212;27.908;2023-03-29T09:50:02;15.49;37.30
71039;SHT30;58692;43.212;27.908;2023-03-29T09:52:31;15.90;35.65
71039;SHT30;58692;43.212;27.908;2023-03-29T09:54:58;15.94;35.70
71039;SHT30;58692;43.212;27.908;2023-03-29T09:57:27;16.32;35.02
71039;SHT30;58692;43.212;27.908;2023-03-29T09:59:54;14.03;38.59
71039;SHT30;58692;43.212;27.908;2023-03-29T10:02:19;12.91;41.49
71039;SHT30;58692;43.212;27.908;2023-03-29T10:04:52;12.56;42.17
71039;SHT30;58692;43.212;27.908;2023-03-29T10:07:31;14.06;39.32
71039;SHT30;58692;43.212;27.908;2023-03-29T10:10:00;14.51;36.83
71039;SHT30;58692;43.212;27.908;2023-03-29T10:12:49;14.98;35.67
71039;SHT30;58692;43.212;27.908;2023-03-29T10:15:16;16.00;34.51
71039;SHT30;58692;43.212;27.908;2023-03-29T10:17:46;14.98;35.31
71039;SHT30;58692;43.212;27.908;2023-03-29T10:20:15;13.65;36.38
71039;SHT30;58692;43.212;27.908;2023-03-29T10:22:48;15.21;33.38
71039;SHT30;58692;43.212;27.908;2023-03-29T10:25:16;14.14;34.76
71039;SHT30;58692;43.212;27.908;2023-03-29T10:27:45;13.83;35.88
71039;SHT30;58692;43.212;27.908;2023-03-29T10:30:28;13.46;36.54
71039;SHT30;58692;43.212;27.908;2023-03-29T10:36:02;12.44;38.33
71039;SHT30;58692;43.212;27.908;2023-03-29T10:38:31;12.05;40.49
71039;SHT30;58692;43.212;27.908;2023-03-29T10:41:11;11.79;42.38
71039;SHT30;58692;43.212;27.908;2023-03-29T10:43:49;11.59;42.45
71039;SHT30;58692;43.212;27.908;2023-03-29T10:46:31;11.51;43.52
71039;SHT30;58692;43.212;27.908;2023-03-29T10:49:16;11.14;43.32
71039;SHT30;58692;43.212;27.908;2023-03-29T10:51:49;12.28;42.86
71039;SHT30;58692;43.212;27.908;2023-03-29T10:54:21;12.74;41.16
71039;SHT30;58692;43.212;27.908;2023-03-29T10:57:13;12.34;42.15
71039;SHT30;58692;43.212;27.908;2023-03-29T11:19:41;9.23;44.33
71039;SHT30;58692;43.212;27.908;2023-03-29T11:22:12;9.20;45.14
71039;SHT30;58692;43.212;27.908;2023-03-29T11:25:01;9.03;44.82
71039;SHT30;58692;43.212;27.908;2023-03-29T11:27:38;9.16;45.95
71039;SHT30;58692;43.212;27.908;2023-03-29T11:33:08;11.96;43.18
71039;SHT30;58692;43.212;27.908;2023-03-29T11:35:45;13.14;40.71
71039;SHT30;58692;43.212;27.908;2023-03-29T11:38:33;13.62;38.59
71039;SHT30;58692;43.212;27.908;2023-03-29T11:41:17;13.90;35.58
71039;SHT30;58692;43.212;27.908;2023-03-29T11:43:51;13.80;31.59
71039;SHT30;58692;43.212;27.908;2023-03-29T11:56:48;14.89;31.66
71039;SHT30;58692;43.212;27.908;2023-03-29T11:59:27;13.66;35.41
71039;SHT30;58692;43.212;27.908;2023-03-29T12:02:21;12.67;37.96
71039;SHT30;58692;43.212;27.908;2023-03-29T12:04:54;11.38;40.27
71039;SHT30;58692;43.212;27.908;2023-03-29T12:07:23;12.88;37.89
71039;SHT30;58692;43.212;27.908;2023-03-29T12:09:59;13.86;35.94
71039;SHT30;58692;43.212;27.908;2023-03-29T12:15:23;13.83;34.34
71039;SHT30;58692;43.212;27.908;2023-03-29T12:18:11;14.21;34.01
71039;SHT30;58692;43.212;27.908;2023-03-29T12:20:40;14.33;33.33
71039;SHT30;58692;43.212;27.908;2023-03-29T12:23:07;14.36;33.00
71039;SHT30;58692;43.212;27.908;2023-03-29T12:25:43;14.17;33.73
71039;SHT30;58692;43.212;27.908;2023-03-29T12:39:17;14.26;36.01
71039;SHT30;58692;43.212;27.908;2023-03-29T12:41:47;13.77;41.40
71039;SHT30;58692;43.212;27.908;2023-03-29T12:44:19;12.94;43.71
71039;SHT30;58692;43.212;27.908;2023-03-29T12:46:45;11.30;47.02
71039;SHT30;58692;43.212;27.908;2023-03-29T12:49:31;10.81;50.21
71039;SHT30;58692;43.212;27.908;2023-03-29T12:51:58;10.89;50.66
71039;SHT30;58692;43.212;27.908;2023-03-29T12:54:31;9.87;52.90
71039;SHT30;58692;43.212;27.908;2023-03-29T12:59:44;8.88;59.21
71039;SHT30;58692;43.212;27.908;2023-03-29T13:04:56;8.18;69.85
71039;SHT30;58692;43.212;27.908;2023-03-29T13:07:29;7.97;73.14
71039;SHT30;58692;43.212;27.908;2023-03-29T13:12:53;7.35;73.76
71039;SHT30;58692;43.212;27.908;2023-03-29T13:15:48;7.15;75.91
71039;SHT30;58692;43.212;27.908;2023-03-29T13:18:23;7.26;76.63
71039;SHT30;58692;43.212;27.908;2023-03-29T13:21:15;7.05;77.21
71039;SHT30;58692;43.212;27.908;2023-03-29T13:30:05;7.67;74.98
71039;SHT30;58692;43.212;27.908;2023-03-29T13:35:30;7.77;72.84
71039;SHT30;58692;43.212;27.908;2023-03-29T13:40:56;7.45;73.33
71039;SHT30;58692;43.212;27.908;2023-03-29T13:43:47;7.72;72.71
71039;SHT30;58692;43.212;27.908;2023-03-29T13:46:39;7.91;69.74
71039;SHT30;58692;43.212;27.908;2023-03-29T13:49:22;7.98;72.03
71039;SHT30;58692;43.212;27.908;2023-03-29T13:52:06;8.01;70.39
71039;SHT30;58692;43.212;27.908;2023-03-29T13:54:43;8.10;66.97
71039;SHT30;58692;43.212;27.908;2023-03-29T13:57:17;7.82;65.71
71039;SHT30;58692;43.212;27.908;2023-03-29T14:02:23;7.69;65.88
71039;SHT30;58692;43.212;27.908;2023-03-29T14:04:59;7.59;67.59
71039;SHT30;58692;43.212;27.908;2023-03-29T14:07:27;7.72;68.42
71039;SHT30;58692;43.212;27.908;2023-03-29T14:09:57;7.82;68.37
71039;SHT30;58692;43.212;27.908;2023-03-29T14:12:34;7.56;65.42
71039;SHT30;58692;43.212;27.908;2023-03-29T14:15:05;7.09;64.46
71039;SHT30;58692;43.212;27.908;2023-03-29T14:17:31;6.81;68.09
71039;SHT30;58692;43.212;27.908;2023-03-29T14:20:01;6.77;68.13
71039;SHT30;58692;43.212;27.908;2023-03-29T14:22:32;6.40;68.51
71039;SHT30;58692;43.212;27.908;2023-03-29T14:25:04;6.53;69.81
71039;SHT30;58692;43.212;27.908;2023-03-29T14:27:31;6.87;71.43
71039;SHT30;58692;43.212;27.908;2023-03-29T14:29:57;7.11;69.86
71039;SHT30;58692;43.212;27.908;2023-03-29T14:32:28;7.19;69.26
71039;SHT30;58692;43.212;27.908;2023-03-29T14:34:57;7.18;68.85
71039;SHT30;58692;43.212;27.908;2023-03-29T14:37:26;6.84;66.94
71039;SHT30;58692;43.212;27.908;2023-03-29T14:39:54;6.97;66.28
71039;SHT30;58692;43.212;27.908;2023-03-29T14:42:31;7.05;66.94
71039;SHT30;58692;43.212;27.908;2023-03-29T14:45:03;7.42;68.36
71039;SHT30;58692;43.212;27.908;2023-03-29T14:47:31;7.70;66.74
71039;SHT30;58692;43.212;27.908;2023-03-29T14:50:19;7.87;66.30
71039;SHT30;58692;43.212;27.908;2023-03-29T14:56:15;7.76;66.90
71039;SHT30;58692;43.212;27.908;2023-03-29T14:58:48;7.94;66.57
71039;SHT30;58692;43.212;27.908;2023-03-29T15:01:24;7.86;67.74
71039;SHT30;58692;43.212;27.908;2023-03-29T15:06:18;7.79;69.90
71039;SHT30;58692;43.212;27.908;2023-03-29T15:08:44;7.49;69.27
71039;SHT30;58692;43.212;27.908;2023-03-29T15:11:14;6.94;68.89
71039;SHT30;58692;43.212;27.908;2023-03-29T15:13:42;6.98;67.15
71039;SHT30;58692;43.212;27.908;2023-03-29T15:16:15;7.08;68.65
71039;SHT30;58692;43.212;27.908;2023-03-29T15:18:41;7.21;66.09
71039;SHT30;58692;43.212;27.908;2023-03-29T15:21:08;7.02;62.06
71039;SHT30;58692;43.212;27.908;2023-03-29T15:23:50;7.19;63.52
71039;SHT30;58692;43.212;27.908;2023-03-29T15:26:31;7.25;64.35
71039;SHT30;58692;43.212;27.908;2023-03-29T15:29:12;7.42;64.97
71039;SHT30;58692;43.212;27.908;2023-03-29T15:31:54;7.22;62.77
71039;SHT30;58692;43.212;27.908;2023-03-29T15:34:31;7.45;64.56
71039;SHT30;58692;43.212;27.908;2023-03-29T15:36:57;7.29;63.04
71039;SHT30;58692;43.212;27.908;2023-03-29T15:39:23;7.12;63.18
71039;SHT30;58692;43.212;27.908;2023-03-29T15:41:50;6.94;63.18
71039;SHT30;58692;43.212;27.908;2023-03-29T15:44:25;6.92;64.55
71039;SHT30;58692;43.212;27.908;2023-03-29T15:46:52;6.76;65.41
71039;SHT30;58692;43.212;27.908;2023-03-29T15:49:19;6.95;66.67
71039;SHT30;58692;43.212;27.908;2023-03-29T15:51:45;7.02;65.41
71039;SHT30;58692;43.212;27.908;2023-03-29T15:54:11;6.89;66.08
71039;SHT30;58692;43.212;27.908;2023-03-29T15:56:48;7.04;67.48
71039;SHT30;58692;43.212;27.908;2023-03-29T15:59:14;6.95;67.73
71039;SHT30;58692;43.212;27.908;2023-03-29T16:01:43;6.89;68.97
71039;SHT30;58692;43.212;27.908;2023-03-29T16:06:36;6.85;69.52
71039;SHT30;58692;43.212;27.908;2023-03-29T16:09:04;6.84;68.97
71039;SHT30;58692;43.212;27.908;2023-03-29T16:11:31;6.80;69.69
71039;SHT30;58692;43.212;27.908;2023-03-29T16:13:57;6.73;69.90
71039;SHT30;58692;43.212;27.908;2023-03-29T16:16:26;6.73;69.22
71039;SHT30;58692;43.212;27.908;2023-03-29T16:18:52;6.66;69.80
71039;SHT30;58692;43.212;27.908;2023-03-29T16:21:20;6.68;69.79
71039;SHT30;58692;43.212;27.908;2023-03-29T16:23:46;6.56;70.34
71039;SHT30;58692;43.212;27.908;2023-03-29T16:26:14;6.78;71.27
71039;SHT30;58692;43.212;27.908;2023-03-29T16:28:40;6.92;70.45
71039;SHT30;58692;43.212;27.908;2023-03-29T16:31:09;6.63;70.33
71039;SHT30;58692;43.212;27.908;2023-03-29T16:33:35;6.71;70.20
71039;SHT30;58692;43.212;27.908;2023-03-29T16:36:01;6.58;72.00
71039;SHT30;58692;43.212;27.908;2023-03-29T16:38:27;6.57;72.28
71039;SHT30;58692;43.212;27.908;2023-03-29T16:40:53;6.24;71.67
71039;SHT30;58692;43.212;27.908;2023-03-29T16:43:19;5.73;71.54
71039;SHT30;58692;43.212;27.908;2023-03-29T16:45:44;5.83;71.98
71039;SHT30;58692;43.212;27.908;2023-03-29T16:48:13;5.96;71.43
71039;SHT30;58692;43.212;27.908;2023-03-29T16:50:42;6.09;72.18
71039;SHT30;58692;43.212;27.908;2023-03-29T16:53:07;6.05;70.32
71039;SHT30;58692;43.212;27.908;2023-03-29T16:55:33;5.71;69.86
71039;SHT30;58692;43.212;27.908;2023-03-29T16:57:59;5.55;69.86
71039;SHT30;58692;43.212;27.908;2023-03-29T17:00:24;5.45;70.34
71039;SHT30;58692;43.212;27.908;2023-03-29T17:02:50;5.37;71.36
71039;SHT30;58692;43.212;27.908;2023-03-29T17:05:17;5.23;73.45
71039;SHT30;58692;43.212;27.908;2023-03-29T17:07:43;5.34;72.41
71039;SHT30;58692;43.212;27.908;2023-03-29T17:10:10;5.10;71.48
71039;SHT30;58692;43.212;27.908;2023-03-29T17:12:36;5.28;71.53
71039;SHT30;58692;43.212;27.908;2023-03-29T17:15:03;5.55;71.52
71039;SHT30;58692;43.212;27.908;2023-03-29T17:17:29;5.69;70.53
71039;SHT30;58692;43.212;27.908;2023-03-29T17:19:55;5.71;69.98
71039;SHT30;58692;43.212;27.908;2023-03-29T17:22:22;5.68;69.29
71039;SHT30;58692;43.212;27.908;2023-03-29T17:24:47;5.69;69.67
71039;SHT30;58692;43.212;27.908;2023-03-29T17:27:13;5.69;68.93
71039;SHT30;58692;43.212;27.908;2023-03-29T17:29:39;5.79;69.57
71039;SHT30;58692;43.212;27.908;2023-03-29T17:32:05;5.76;68.95
71039;SHT30;58692;43.212;27.908;2023-03-29T17:34:31;5.82;68.72
71039;SHT30;58692;43.212;27.908;2023-03-29T17:36:57;5.95;69.69
71039;SHT30;58692;43.212;27.908;2023-03-29T17:39:23;5.88;68.82
71039;SHT30;58692;43.212;27.908;2023-03-29T17:41:51;5.93;69.09